createdAt,value
2019-05-11T00:02:25.191Z,87.80
2019-05-11T00:04:55.937Z,88.80
2019-05-11T00:07:27.635Z,87.80
2019-05-11T00:09:58.701Z,88.50
2019-05-11T00:12:29.705Z,89.50
2019-05-11T00:15:01.517Z,90.00
2019-05-11T00:17:32.130Z,90.30
2019-05-11T00:20:03.308Z,90.10
2019-05-11T00:22:34.952Z,90.10
2019-05-11T00:25:07.977Z,89.70
2019-05-11T00:27:38.685Z,90.50
2019-05-11T00:30:10.970Z,91.30
2019-05-11T00:32:42.090Z,90.90
2019-05-11T00:35:12.822Z,90.80
2019-05-11T00:37:43.660Z,91.30
2019-05-11T00:40:15.194Z,90.70
2019-05-11T00:42:46.221Z,91.30
2019-05-11T00:45:16.962Z,91.60
2019-05-11T00:47:49.646Z,91.90
2019-05-11T00:50:20.267Z,91.70
2019-05-11T00:52:52.033Z,91.90
2019-05-11T00:55:22.729Z,92.10
2019-05-11T00:57:53.258Z,92.90
2019-05-11T01:00:24.097Z,92.30
2019-05-11T01:02:54.612Z,92.10
2019-05-11T01:05:25.229Z,92.40
2019-05-11T01:07:55.829Z,92.30
2019-05-11T01:10:41.030Z,92.30
2019-05-11T01:12:58.561Z,92.20
2019-05-11T01:15:29.398Z,92.00
2019-05-11T01:18:00.455Z,92.20
2019-05-11T01:20:31.145Z,92.50
2019-05-11T01:23:01.779Z,92.40
2019-05-11T01:25:32.501Z,92.30
2019-05-11T01:28:03.065Z,92.10
2019-05-11T01:30:34.138Z,92.20
2019-05-11T01:33:04.761Z,92.20
2019-05-11T01:35:35.390Z,91.40
2019-05-11T01:38:07.581Z,91.30
2019-05-11T01:40:38.317Z,91.50
2019-05-11T01:43:09.174Z,90.70
2019-05-11T01:45:40.187Z,90.80
2019-05-11T01:48:10.945Z,91.00
2019-05-11T01:50:41.554Z,90.90
2019-05-11T01:53:12.175Z,91.30
2019-05-11T01:55:42.853Z,90.90
2019-05-11T01:58:13.437Z,90.90
2019-05-11T02:00:44.427Z,91.70
2019-05-11T02:03:15.399Z,91.30
2019-05-11T02:05:46.155Z,91.20
2019-05-11T02:08:17.808Z,91.70
2019-05-11T02:10:48.413Z,91.90
2019-05-11T02:13:19.182Z,91.90
2019-05-11T02:15:49.823Z,91.90
2019-05-11T02:18:20.427Z,91.90
2019-05-11T02:20:51.273Z,91.90
2019-05-11T02:23:21.765Z,91.70
2019-05-11T02:25:52.395Z,92.00
2019-05-11T02:28:22.958Z,92.30
2019-05-11T02:30:53.747Z,92.50
2019-05-11T02:33:24.497Z,92.50
2019-05-11T02:35:55.195Z,92.60
2019-05-11T02:38:25.825Z,92.40
2019-05-11T02:40:56.332Z,92.20
2019-05-11T02:43:27.382Z,92.20
2019-05-11T02:45:57.970Z,92.80
2019-05-11T02:48:28.856Z,92.90
2019-05-11T02:51:00.003Z,93.00
2019-05-11T02:53:32.376Z,93.00
2019-05-11T02:56:04.452Z,92.90
2019-05-11T02:58:35.288Z,92.60
2019-05-11T03:01:05.986Z,92.70
2019-05-11T03:03:36.618Z,92.20
2019-05-11T03:06:07.178Z,91.90
2019-05-11T03:08:38.226Z,92.00
2019-05-11T03:11:08.836Z,92.20
2019-05-11T03:13:39.355Z,91.60
2019-05-11T03:16:10.592Z,91.70
2019-05-11T03:18:41.111Z,91.90
2019-05-11T03:21:12.032Z,91.60
2019-05-11T03:23:42.579Z,91.60
2019-05-11T03:26:13.153Z,91.10
2019-05-11T03:28:43.831Z,90.90
2019-05-11T03:31:14.490Z,91.10
2019-05-11T03:33:44.975Z,91.20
2019-05-11T03:36:15.491Z,91.00
2019-05-11T03:38:46.049Z,90.60
2019-05-11T03:41:16.873Z,90.50
2019-05-11T03:43:47.682Z,90.00
2019-05-11T03:46:18.551Z,90.20
2019-05-11T03:48:49.157Z,89.60
2019-05-11T03:51:20.030Z,89.40
2019-05-11T03:53:51.477Z,90.20
2019-05-11T03:56:22.195Z,89.80
2019-05-11T03:58:52.687Z,90.20
2019-05-11T04:01:23.580Z,90.40
2019-05-11T04:03:54.209Z,89.50
2019-05-11T04:06:24.863Z,89.20
2019-05-11T04:08:55.901Z,89.70
2019-05-11T04:11:26.566Z,90.10
2019-05-11T04:13:57.196Z,89.90
2019-05-11T04:16:27.978Z,89.80
2019-05-11T04:18:58.551Z,90.00
2019-05-11T04:21:29.365Z,90.70
2019-05-11T04:24:00.014Z,90.70
2019-05-11T04:26:30.632Z,90.70
2019-05-11T04:29:01.169Z,91.10
2019-05-11T04:31:31.643Z,91.70
2019-05-11T04:34:02.164Z,92.30
2019-05-11T04:36:32.741Z,92.90
2019-05-11T04:39:04.967Z,92.90
2019-05-11T04:41:35.463Z,93.00
2019-05-11T04:44:06.499Z,93.60
2019-05-11T04:46:37.069Z,94.10
2019-05-11T04:49:07.652Z,94.70
2019-05-11T04:51:39.713Z,95.10
2019-05-11T04:54:10.197Z,95.40
2019-05-11T04:56:40.785Z,95.80
2019-05-11T04:59:11.734Z,96.00
2019-05-11T05:01:42.326Z,96.50
2019-05-11T05:04:14.457Z,96.60
2019-05-11T05:06:58.856Z,96.60
2019-05-11T05:09:17.443Z,96.70
2019-05-11T05:11:48.018Z,96.90
2019-05-11T05:14:18.614Z,96.70
2019-05-11T05:16:49.549Z,97.00
2019-05-11T05:19:20.420Z,96.60
2019-05-11T05:21:51.225Z,96.90
2019-05-11T05:24:21.816Z,96.70
2019-05-11T05:26:52.523Z,96.70
2019-05-11T05:29:24.238Z,97.20
2019-05-11T05:31:55.938Z,97.30
2019-05-11T05:34:26.571Z,97.50
2019-05-11T05:36:57.058Z,97.20
2019-05-11T05:39:27.646Z,97.80
2019-05-11T05:41:58.163Z,97.60
2019-05-11T05:44:28.747Z,97.60
2019-05-11T05:46:59.311Z,97.90
2019-05-11T05:49:30.248Z,97.80
2019-05-11T05:52:00.753Z,98.30
2019-05-11T05:54:31.741Z,99.00
2019-05-11T05:57:02.243Z,99.50
2019-05-11T05:59:32.749Z,99.90
2019-05-11T06:02:03.433Z,99.90
2019-05-11T06:04:34.067Z,99.50
2019-05-11T06:07:04.772Z,99.00
2019-05-11T06:09:35.322Z,99.30
2019-05-11T06:12:05.938Z,98.90
2019-05-11T06:14:36.786Z,99.20
2019-05-11T06:17:07.481Z,99.70
2019-05-11T06:19:39.699Z,99.90
2019-05-11T06:22:10.326Z,99.90
2019-05-11T06:24:40.958Z,99.90
2019-05-11T06:27:11.485Z,99.70
2019-05-11T06:29:41.970Z,99.70
2019-05-11T06:32:12.874Z,99.90
2019-05-11T06:34:43.357Z,99.90
2019-05-11T06:37:14.062Z,99.90
2019-05-11T06:39:44.562Z,99.90
2019-05-11T06:42:15.079Z,99.90
2019-05-11T06:44:45.754Z,99.90
2019-05-11T06:47:16.448Z,99.50
2019-05-11T06:49:47.081Z,99.30
2019-05-11T06:52:17.597Z,99.90
2019-05-11T06:54:48.190Z,99.90
2019-05-11T06:57:20.453Z,99.90
2019-05-11T06:59:51.094Z,99.90
2019-05-11T07:02:21.592Z,99.90
2019-05-11T07:04:52.174Z,99.90
2019-05-11T07:07:22.671Z,99.90
2019-05-11T07:09:53.303Z,99.90
2019-05-11T07:12:27.470Z,99.90
2019-05-11T07:14:56.239Z,99.90
2019-05-11T07:17:26.742Z,99.90
2019-05-11T07:19:57.258Z,99.90
2019-05-11T07:22:27.762Z,99.70
2019-05-11T07:24:58.270Z,99.30
2019-05-11T07:27:28.798Z,99.30
2019-05-11T07:29:59.359Z,99.80
2019-05-11T07:32:30.012Z,99.30
2019-05-11T07:35:00.567Z,99.90
2019-05-11T07:37:32.158Z,99.90
2019-05-11T07:40:05.098Z,99.90
2019-05-11T07:42:37.930Z,99.90
2019-05-11T07:45:09.275Z,99.80
2019-05-11T07:47:41.418Z,99.80
2019-05-11T07:50:12.353Z,99.30
2019-05-11T07:52:42.978Z,98.70
2019-05-11T07:55:13.942Z,99.20
2019-05-11T07:57:44.435Z,99.20
2019-05-11T08:00:15.558Z,98.60
2019-05-11T08:02:47.997Z,99.00
2019-05-11T08:05:18.816Z,98.70
2019-05-11T08:07:49.320Z,98.20
2019-05-11T08:10:19.967Z,98.90
2019-05-11T08:12:50.459Z,98.60
2019-05-11T08:15:21.537Z,98.50
2019-05-11T08:17:52.458Z,98.10
2019-05-11T08:20:23.424Z,97.10
2019-05-11T08:22:54.255Z,97.50
2019-05-11T08:25:24.911Z,97.30
2019-05-11T08:27:55.653Z,97.60
2019-05-11T08:30:27.809Z,97.70
2019-05-11T08:32:58.658Z,97.70
2019-05-11T08:35:31.320Z,98.20
2019-05-11T08:38:01.789Z,97.40
2019-05-11T08:40:32.375Z,96.60
2019-05-11T08:43:03.075Z,96.20
2019-05-11T08:45:33.818Z,95.50
2019-05-11T08:48:04.469Z,95.90
2019-05-11T08:50:38.172Z,96.40
2019-05-11T08:53:08.708Z,96.30
2019-05-11T08:55:39.366Z,95.40
2019-05-11T08:58:10.138Z,95.50
2019-05-11T09:00:41.033Z,94.10
2019-05-11T09:03:11.688Z,93.50
2019-05-11T09:05:42.290Z,94.10
2019-05-11T09:08:12.953Z,93.80
2019-05-11T09:10:43.974Z,93.50
2019-05-11T09:13:14.809Z,92.90
2019-05-11T09:15:45.559Z,92.90
2019-05-11T09:18:18.571Z,93.30
2019-05-11T09:20:48.752Z,91.10
2019-05-11T09:23:33.638Z,90.30
2019-05-11T09:25:51.722Z,90.10
2019-05-11T09:28:22.383Z,89.00
2019-05-11T09:30:53.346Z,90.20
2019-05-11T09:33:24.050Z,90.50
2019-05-11T09:35:54.628Z,88.90
2019-05-11T09:38:27.697Z,85.10
2019-05-11T09:40:58.582Z,87.50
2019-05-11T09:43:29.317Z,89.60
2019-05-11T09:46:00.226Z,87.90
2019-05-11T09:48:30.823Z,89.00
2019-05-11T09:51:01.795Z,84.30
2019-05-11T09:53:32.400Z,85.30
2019-05-11T09:56:03.153Z,84.60
2019-05-11T09:58:34.206Z,84.70
2019-05-11T10:01:04.935Z,87.40
2019-05-11T10:03:35.434Z,84.80
2019-05-11T10:06:08.359Z,85.20
2019-05-11T10:08:38.683Z,82.80
2019-05-11T10:11:09.518Z,81.90
2019-05-11T10:13:41.398Z,81.70
2019-05-11T10:16:12.231Z,82.00
2019-05-11T10:18:42.867Z,84.00
2019-05-11T10:21:13.494Z,83.10
2019-05-11T10:23:44.287Z,82.20
2019-05-11T10:26:14.977Z,81.80
2019-05-11T10:28:47.945Z,80.40
2019-05-11T10:31:18.325Z,81.90
2019-05-11T10:33:49.263Z,82.50
2019-05-11T10:36:21.295Z,80.70
2019-05-11T10:38:51.922Z,79.90
2019-05-11T10:41:22.618Z,82.50
2019-05-11T10:43:53.498Z,81.80
2019-05-11T10:46:24.189Z,80.90
2019-05-11T10:48:54.933Z,80.80
2019-05-11T10:51:25.643Z,80.80
2019-05-11T10:53:57.883Z,77.10
2019-05-11T10:56:28.629Z,77.20
2019-05-11T10:59:00.177Z,78.60
2019-05-11T11:01:31.087Z,78.30
2019-05-11T11:04:01.707Z,77.30
2019-05-11T11:06:32.582Z,77.40
2019-05-11T11:09:03.545Z,78.70
2019-05-11T11:11:34.098Z,79.40
2019-05-11T11:14:04.862Z,77.20
2019-05-11T11:16:40.403Z,77.90
2019-05-11T11:19:08.413Z,77.10
2019-05-11T11:21:40.378Z,77.90
2019-05-11T11:24:11.213Z,76.30
2019-05-11T11:26:42.155Z,77.30
2019-05-11T11:29:12.781Z,78.00
2019-05-11T11:31:43.271Z,78.70
2019-05-11T11:34:13.849Z,78.10
2019-05-11T11:36:44.626Z,78.00
2019-05-11T11:39:15.215Z,77.60
2019-05-11T11:41:48.383Z,77.60
2019-05-11T11:44:18.641Z,76.40
2019-05-11T11:46:54.902Z,75.10
2019-05-11T11:49:21.751Z,76.50
2019-05-11T11:51:53.142Z,75.00
2019-05-11T11:54:23.768Z,75.70
2019-05-11T11:56:54.670Z,74.90
2019-05-11T11:59:25.282Z,75.80
2019-05-11T12:01:58.156Z,77.20
2019-05-11T12:04:28.558Z,76.80
2019-05-11T12:06:59.473Z,77.90
2019-05-11T12:09:31.427Z,79.40
2019-05-11T12:12:01.941Z,80.30
2019-05-11T12:14:32.433Z,81.90
2019-05-11T12:17:07.751Z,83.50
2019-05-11T12:19:35.187Z,85.90
2019-05-11T12:22:08.435Z,88.00
2019-05-11T12:24:38.154Z,87.20
2019-05-11T12:27:08.958Z,89.30
2019-05-11T12:29:39.727Z,90.60
2019-05-11T12:32:11.882Z,90.90
2019-05-11T12:34:42.778Z,90.00
2019-05-11T12:37:13.270Z,91.00
2019-05-11T12:39:44.073Z,91.10
2019-05-11T12:42:17.828Z,90.90
2019-05-11T12:44:48.298Z,89.00
2019-05-11T12:47:24.830Z,89.10
2019-05-11T12:49:51.445Z,89.50
2019-05-11T12:52:21.938Z,90.00
2019-05-11T12:54:52.869Z,89.10
2019-05-11T12:57:23.439Z,89.40
2019-05-11T12:59:54.030Z,88.80
2019-05-11T13:02:24.690Z,84.80
2019-05-11T13:04:58.346Z,83.90
2019-05-11T13:07:28.434Z,84.80
2019-05-11T13:09:59.434Z,80.20
2019-05-11T13:12:30.002Z,81.70
2019-05-11T13:15:00.639Z,79.10
2019-05-11T13:17:37.417Z,81.30
2019-05-11T13:20:05.415Z,77.70
2019-05-11T13:22:38.052Z,80.00
2019-05-11T13:25:08.874Z,79.10
2019-05-11T13:27:40.345Z,79.90
2019-05-11T13:30:11.309Z,79.10
2019-05-11T13:32:42.074Z,77.80
2019-05-11T13:35:12.910Z,77.90
2019-05-11T13:37:43.603Z,78.60
2019-05-11T13:40:15.619Z,77.00
2019-05-11T13:42:48.726Z,77.30
2019-05-11T13:45:18.950Z,75.90
2019-05-11T13:47:55.554Z,74.50
2019-05-11T13:50:21.765Z,75.90
2019-05-11T13:52:52.278Z,75.80
2019-05-11T13:55:22.946Z,74.60
2019-05-11T13:57:53.461Z,75.30
2019-05-11T14:00:24.404Z,74.90
2019-05-11T14:02:58.361Z,75.60
2019-05-11T14:05:28.813Z,75.00
2019-05-11T14:07:59.334Z,75.50
2019-05-11T14:10:29.845Z,76.70
2019-05-11T14:13:00.550Z,75.80
2019-05-11T14:15:31.138Z,75.30
2019-05-11T14:18:07.755Z,75.30
2019-05-11T14:20:33.949Z,75.80
2019-05-11T14:23:04.663Z,76.50
2019-05-11T14:25:35.175Z,76.10
2019-05-11T14:28:05.783Z,74.30
2019-05-11T14:30:38.014Z,75.60
2019-05-11T14:33:08.948Z,76.60
2019-05-11T14:35:40.883Z,75.20
2019-05-11T14:38:11.451Z,70.30
2019-05-11T14:40:42.152Z,69.60
2019-05-11T14:43:12.783Z,71.20
2019-05-11T14:45:43.685Z,68.40
2019-05-11T14:48:25.977Z,66.60
2019-05-11T14:50:48.725Z,67.50
2019-05-11T14:53:19.278Z,66.70
2019-05-11T14:55:49.899Z,67.80
2019-05-11T14:58:20.481Z,68.10
2019-05-11T15:00:51.046Z,67.30
2019-05-11T15:03:21.931Z,66.60
2019-05-11T15:05:52.509Z,67.20
2019-05-11T15:08:23.359Z,67.00
2019-05-11T15:10:53.874Z,69.30
2019-05-11T15:13:24.365Z,69.90
2019-05-11T15:15:55.282Z,70.90
2019-05-11T15:18:36.040Z,70.90
2019-05-11T15:20:58.184Z,71.60
2019-05-11T15:23:28.824Z,73.30
2019-05-11T15:25:59.650Z,73.90
2019-05-11T15:28:30.501Z,74.20
2019-05-11T15:31:01.023Z,74.40
2019-05-11T15:33:31.614Z,74.30
2019-05-11T15:36:02.586Z,73.90
2019-05-11T15:38:33.141Z,74.50
2019-05-11T15:41:03.658Z,74.70
2019-05-11T15:43:34.354Z,74.90
2019-05-11T15:46:05.014Z,74.00
2019-05-11T15:48:52.855Z,74.70
2019-05-11T15:51:08.168Z,74.50
2019-05-11T15:53:38.758Z,75.50
2019-05-11T15:56:09.313Z,76.10
2019-05-11T15:58:40.013Z,74.10
2019-05-11T16:01:10.644Z,75.20
2019-05-11T16:03:41.242Z,74.90
2019-05-11T16:06:11.755Z,75.30
2019-05-11T16:08:45.281Z,74.30
2019-05-11T16:11:14.385Z,75.20
2019-05-11T16:13:44.906Z,75.30
2019-05-11T16:16:15.531Z,76.40
2019-05-11T16:18:48.359Z,75.10
2019-05-11T16:21:18.697Z,75.80
2019-05-11T16:23:49.633Z,74.20
2019-05-11T16:26:20.334Z,74.50
2019-05-11T16:28:50.937Z,75.20
2019-05-11T16:31:21.602Z,75.00
2019-05-11T16:33:52.607Z,74.30
2019-05-11T16:36:23.301Z,73.90
2019-05-11T16:38:54.282Z,73.80
2019-05-11T16:41:24.973Z,73.00
2019-05-11T16:43:55.574Z,74.40
2019-05-11T16:46:28.288Z,73.10
2019-05-11T16:48:58.867Z,73.60
2019-05-11T16:51:29.451Z,72.30
2019-05-11T16:54:00.309Z,72.00
2019-05-11T16:56:30.822Z,72.50
2019-05-11T16:59:02.526Z,72.60
2019-05-11T17:01:33.110Z,73.70
2019-05-11T17:04:03.741Z,72.50
2019-05-11T17:06:34.432Z,71.30
2019-05-11T17:09:08.855Z,71.70
2019-05-11T17:11:39.482Z,73.10
2019-05-11T17:14:10.073Z,73.50
2019-05-11T17:16:40.717Z,72.70
2019-05-11T17:19:11.410Z,73.70
2019-05-11T17:21:41.970Z,72.80
2019-05-11T17:24:12.625Z,72.60
2019-05-11T17:26:43.302Z,71.50
2019-05-11T17:29:13.892Z,70.80
2019-05-11T17:31:44.498Z,70.80
2019-05-11T17:34:18.498Z,71.50
2019-05-11T17:36:47.514Z,70.10
2019-05-11T17:39:18.851Z,71.00
2019-05-11T17:41:50.664Z,71.00
2019-05-11T17:44:21.302Z,69.80
2019-05-11T17:46:51.804Z,70.30
2019-05-11T17:49:22.389Z,70.80
2019-05-11T17:51:52.998Z,71.70
2019-05-11T17:54:23.638Z,72.10
2019-05-11T17:56:54.248Z,73.00
2019-05-11T17:59:24.874Z,72.70
2019-05-11T18:01:55.370Z,73.10
2019-05-11T18:04:25.881Z,72.50
2019-05-11T18:06:58.859Z,72.70
2019-05-11T18:09:30.457Z,73.00
2019-05-11T18:12:01.373Z,72.20
2019-05-11T18:14:35.761Z,73.20
2019-05-11T18:17:04.565Z,72.10
2019-05-11T18:19:35.158Z,72.50
2019-05-11T18:22:08.177Z,72.30
2019-05-11T18:24:38.397Z,72.70
2019-05-11T18:27:09.110Z,72.50
2019-05-11T18:29:39.745Z,74.30
2019-05-11T18:32:10.398Z,73.60
2019-05-11T18:34:41.080Z,73.80
2019-05-11T18:37:11.662Z,74.90
2019-05-11T18:39:42.402Z,75.00
2019-05-11T18:42:12.898Z,75.10
2019-05-11T18:44:43.514Z,75.00
2019-05-11T18:47:14.210Z,74.90
2019-05-11T18:49:48.337Z,76.20
2019-05-11T18:52:18.852Z,76.00
2019-05-11T18:54:49.482Z,76.80
2019-05-11T18:57:20.065Z,77.30
2019-05-11T18:59:50.558Z,77.50
2019-05-11T19:02:21.253Z,77.50
2019-05-11T19:04:51.843Z,77.70
2019-05-11T19:07:23.498Z,78.40
2019-05-11T19:09:54.127Z,77.40
2019-05-11T19:12:24.803Z,77.70
2019-05-11T19:14:55.682Z,76.50
2019-05-11T19:17:28.884Z,77.00
2019-05-11T19:19:58.869Z,77.70
2019-05-11T19:22:29.723Z,76.70
2019-05-11T19:25:00.580Z,76.80
2019-05-11T19:27:31.175Z,77.10
2019-05-11T19:30:04.202Z,77.90
2019-05-11T19:32:35.150Z,77.50
2019-05-11T19:35:08.641Z,78.40
2019-05-11T19:37:39.333Z,78.40
2019-05-11T19:40:10.259Z,78.50
2019-05-11T19:42:54.569Z,78.20
2019-05-11T19:45:25.657Z,79.20
2019-05-11T19:47:57.755Z,79.00
2019-05-11T19:50:28.375Z,79.20
2019-05-11T19:52:59.006Z,79.50
2019-05-11T19:55:29.705Z,80.30
2019-05-11T19:58:00.521Z,80.80
2019-05-11T20:00:31.339Z,80.80
2019-05-11T20:03:01.962Z,80.90
2019-05-11T20:05:32.698Z,81.00
2019-05-11T20:08:03.292Z,81.30
2019-05-11T20:10:33.851Z,81.60
2019-05-11T20:13:04.507Z,82.10
2019-05-11T20:15:35.142Z,81.90
2019-05-11T20:18:08.055Z,82.30
2019-05-11T20:20:38.427Z,83.10
2019-05-11T20:23:09.118Z,82.80
2019-05-11T20:25:39.684Z,83.40
2019-05-11T20:28:11.423Z,83.00
2019-05-11T20:30:42.066Z,83.50
2019-05-11T20:33:12.696Z,83.80
2019-05-11T20:35:43.350Z,83.70
2019-05-11T20:38:13.911Z,84.20
2019-05-11T20:40:44.733Z,84.20
2019-05-11T20:43:15.591Z,84.40
2019-05-11T20:45:48.576Z,84.30
2019-05-11T20:48:18.685Z,84.00
2019-05-11T20:50:50.330Z,85.00
2019-05-11T20:53:21.005Z,85.00
2019-05-11T20:55:51.523Z,85.30
2019-05-11T20:58:22.325Z,85.10
2019-05-11T21:00:52.931Z,85.30
2019-05-11T21:03:23.625Z,85.90
2019-05-11T21:05:54.498Z,86.10
2019-05-11T21:08:25.330Z,86.60
2019-05-11T21:10:57.645Z,88.30
2019-05-11T21:13:28.651Z,89.70
2019-05-11T21:15:59.346Z,90.40
2019-05-11T21:18:31.259Z,90.20
2019-05-11T21:21:01.750Z,89.90
2019-05-11T21:23:32.593Z,89.50
2019-05-11T21:26:03.449Z,90.20
2019-05-11T21:28:34.210Z,89.70
2019-05-11T21:31:08.039Z,89.20
2019-05-11T21:33:38.327Z,88.90
2019-05-11T21:36:08.962Z,88.70
2019-05-11T21:38:39.463Z,90.00
2019-05-11T21:41:09.958Z,89.40
2019-05-11T21:43:40.535Z,89.40
2019-05-11T21:46:11.131Z,89.70
2019-05-11T21:48:41.754Z,89.50
2019-05-11T21:51:12.486Z,89.90
2019-05-11T21:53:43.066Z,90.00
2019-05-11T21:56:13.557Z,90.20
2019-05-11T21:58:44.233Z,90.50
2019-05-11T22:01:14.857Z,90.60
2019-05-11T22:03:47.935Z,90.70
2019-05-11T22:06:18.321Z,91.10
2019-05-11T22:08:50.790Z,91.10
2019-05-11T22:11:21.074Z,91.10
2019-05-11T22:13:51.650Z,92.00
2019-05-11T22:16:22.156Z,91.70
2019-05-11T22:18:52.776Z,92.00
2019-05-11T22:21:23.351Z,92.00
2019-05-11T22:23:53.839Z,92.30
2019-05-11T22:26:24.455Z,92.10
2019-05-11T22:28:55.337Z,92.70
2019-05-11T22:31:27.852Z,92.90
2019-05-11T22:33:58.406Z,93.50
2019-05-11T22:36:29.126Z,93.40
2019-05-11T22:39:00.681Z,93.40
2019-05-11T22:41:32.933Z,93.30
2019-05-11T22:44:04.325Z,93.30
2019-05-11T22:46:34.974Z,93.20
2019-05-11T22:49:05.530Z,93.50
2019-05-11T22:51:36.290Z,93.10
2019-05-11T22:54:11.147Z,93.20
2019-05-11T22:56:40.359Z,93.30
2019-05-11T22:59:12.027Z,93.40
2019-05-11T23:01:44.046Z,93.70
2019-05-11T23:04:14.601Z,93.80
2019-05-11T23:06:45.242Z,93.80
2019-05-11T23:09:15.793Z,94.00
2019-05-11T23:11:48.274Z,94.10
2019-05-11T23:14:19.904Z,94.40
2019-05-11T23:16:51.069Z,94.50
2019-05-11T23:19:21.669Z,94.70
2019-05-11T23:21:52.262Z,94.70
2019-05-11T23:24:23.189Z,94.90
2019-05-11T23:26:54.891Z,94.80
2019-05-11T23:29:27.787Z,95.10
2019-05-11T23:31:58.363Z,95.10
2019-05-11T23:34:29.443Z,95.30
2019-05-11T23:37:00.106Z,95.80
2019-05-11T23:39:30.682Z,95.90
2019-05-11T23:42:01.285Z,96.30
2019-05-11T23:44:31.925Z,96.40
2019-05-11T23:47:02.527Z,96.60
2019-05-11T23:49:33.036Z,96.60
2019-05-11T23:52:03.590Z,96.60
2019-05-11T23:54:34.469Z,96.60
2019-05-11T23:57:09.083Z,96.50
2019-05-11T23:59:37.437Z,96.40
